sensor_id;sensor_type;location;lat;lon;timestamp;temperature;humidity
11107;DHT22;5607;48.302;14.294;2023-04-06T00:00:18;4.70;99.90
11107;DHT22;5607;48.302;14.294;2023-04-06T00:03:04;4.60;99.90
11107;DHT22;5607;48.302;14.294;2023-04-06T00:05:51;4.60;99.90
11107;DHT22;5607;48.302;14.294;2023-04-06T00:08:38;4.60;99.90
11107;DHT22;5607;48.302;14.294;2023-04-06T00:11:25;4.60;99.90
11107;DHT22;5607;48.302;14.294;2023-04-06T00:14:12;4.60;99.90
11107;DHT22;5607;48.302;14.294;2023-04-06T00:16:59;4.70;99.90
11107;DHT22;5607;48.302;14.294;2023-04-06T00:19:46;4.80;99.90
11107;DHT22;5607;48.302;14.294;2023-04-06T00:22:33;4.80;99.90
11107;DHT22;5607;48.302;14.294;2023-04-06T00:25:20;4.80;99.90
11107;DHT22;5607;48.302;14.294;2023-04-06T00:28:06;4.90;99.90
11107;DHT22;5607;48.302;14.294;2023-04-06T00:30:53;4.90;99.90
11107;DHT22;5607;48.302;14.294;2023-04-06T00:33:41;4.90;99.90
11107;DHT22;5607;48.302;14.294;2023-04-06T00:36:28;4.80;99.90
11107;DHT22;5607;48.302;14.294;2023-04-06T00:39:14;4.80;99.90
11107;DHT22;5607;48.302;14.294;2023-04-06T00:42:01;4.70;99.90
11107;DHT22;5607;48.302;14.294;2023-04-06T00:44:56;4.60;99.90
11107;DHT22;5607;48.302;14.294;2023-04-06T00:47:45;4.60;99.90
11107;DHT22;5607;48.302;14.294;2023-04-06T00:50:31;4.40;99.90
11107;DHT22;5607;48.302;14.294;2023-04-06T00:53:31;4.40;99.90
11107;DHT22;5607;48.302;14.294;2023-04-06T00:56:17;4.30;99.90
11107;DHT22;5607;48.302;14.294;2023-04-06T00:59:03;4.30;99.90
11107;DHT22;5607;48.302;14.294;2023-04-06T01:01:50;4.30;99.90
11107;DHT22;5607;48.302;14.294;2023-04-06T01:04:36;4.30;99.90
11107;DHT22;5607;48.302;14.294;2023-04-06T01:07:23;4.30;99.90
11107;DHT22;5607;48.302;14.294;2023-04-06T01:10:10;4.20;99.90
11107;DHT22;5607;48.302;14.294;2023-04-06T01:12:56;4.30;99.90
11107;DHT22;5607;48.302;14.294;2023-04-06T01:15:43;4.20;99.90
11107;DHT22;5607;48.302;14.294;2023-04-06T01:18:29;4.20;99.90
11107;DHT22;5607;48.302;14.294;2023-04-06T01:21:16;4.20;99.90
11107;DHT22;5607;48.302;14.294;2023-04-06T01:24:02;4.40;99.90
11107;DHT22;5607;48.302;14.294;2023-04-06T01:26:48;4.30;99.90
11107;DHT22;5607;48.302;14.294;2023-04-06T01:29:35;4.30;99.90
11107;DHT22;5607;48.302;14.294;2023-04-06T01:32:21;4.20;99.90
11107;DHT22;5607;48.302;14.294;2023-04-06T01:35:07;4.10;99.90
11107;DHT22;5607;48.302;14.294;2023-04-06T01:37:55;4.10;99.90
11107;DHT22;5607;48.302;14.294;2023-04-06T01:40:41;4.20;99.90
11107;DHT22;5607;48.302;14.294;2023-04-06T01:43:27;4.10;99.90
11107;DHT22;5607;48.302;14.294;2023-04-06T01:46:14;4.00;99.90
11107;DHT22;5607;48.302;14.294;2023-04-06T01:49:00;4.00;99.90
11107;DHT22;5607;48.302;14.294;2023-04-06T01:51:46;3.90;99.90
11107;DHT22;5607;48.302;14.294;2023-04-06T01:54:32;3.90;99.90
11107;DHT22;5607;48.302;14.294;2023-04-06T01:57:19;3.90;99.90
11107;DHT22;5607;48.302;14.294;2023-04-06T02:00:06;3.90;99.90
11107;DHT22;5607;48.302;14.294;2023-04-06T02:02:52;3.90;99.90
11107;DHT22;5607;48.302;14.294;2023-04-06T02:05:38;3.80;99.90
11107;DHT22;5607;48.302;14.294;2023-04-06T02:08:25;3.80;99.90
11107;DHT22;5607;48.302;14.294;2023-04-06T02:11:11;3.80;99.90
11107;DHT22;5607;48.302;14.294;2023-04-06T02:13:58;3.70;99.90
11107;DHT22;5607;48.302;14.294;2023-04-06T02:16:46;3.60;99.90
11107;DHT22;5607;48.302;14.294;2023-04-06T02:19:32;3.60;99.90
11107;DHT22;5607;48.302;14.294;2023-04-06T02:22:18;3.50;99.90
11107;DHT22;5607;48.302;14.294;2023-04-06T02:25:05;3.50;99.90
11107;DHT22;5607;48.302;14.294;2023-04-06T02:27:51;3.50;99.90
11107;DHT22;5607;48.302;14.294;2023-04-06T02:30:38;3.60;99.90
11107;DHT22;5607;48.302;14.294;2023-04-06T02:33:24;3.60;99.90
11107;DHT22;5607;48.302;14.294;2023-04-06T02:36:10;3.70;99.90
11107;DHT22;5607;48.302;14.294;2023-04-06T02:38:56;3.70;99.90
11107;DHT22;5607;48.302;14.294;2023-04-06T02:41:43;3.60;99.90
11107;DHT22;5607;48.302;14.294;2023-04-06T02:44:29;3.60;99.90
11107;DHT22;5607;48.302;14.294;2023-04-06T02:47:15;3.50;99.90
11107;DHT22;5607;48.302;14.294;2023-04-06T02:50:02;3.50;99.90
11107;DHT22;5607;48.302;14.294;2023-04-06T02:52:48;3.30;99.90
11107;DHT22;5607;48.302;14.294;2023-04-06T02:55:34;3.40;99.90
11107;DHT22;5607;48.302;14.294;2023-04-06T02:58:20;3.40;99.90
11107;DHT22;5607;48.302;14.294;2023-04-06T03:01:07;3.30;99.90
11107;DHT22;5607;48.302;14.294;2023-04-06T03:03:53;3.30;99.90
11107;DHT22;5607;48.302;14.294;2023-04-06T03:06:39;3.40;99.90
11107;DHT22;5607;48.302;14.294;2023-04-06T03:09:25;3.30;99.90
11107;DHT22;5607;48.302;14.294;2023-04-06T03:12:12;3.20;99.90
11107;DHT22;5607;48.302;14.294;2023-04-06T03:14:58;3.00;99.90
11107;DHT22;5607;48.302;14.294;2023-04-06T03:17:44;2.90;99.90
11107;DHT22;5607;48.302;14.294;2023-04-06T03:20:30;2.90;99.90
11107;DHT22;5607;48.302;14.294;2023-04-06T03:23:17;2.90;99.90
11107;DHT22;5607;48.302;14.294;2023-04-06T03:26:03;2.80;99.90
11107;DHT22;5607;48.302;14.294;2023-04-06T03:28:50;2.80;99.90
11107;DHT22;5607;48.302;14.294;2023-04-06T03:31:36;2.70;99.90
11107;DHT22;5607;48.302;14.294;2023-04-06T03:34:22;2.70;99.90
11107;DHT22;5607;48.302;14.294;2023-04-06T03:37:08;2.70;99.90
11107;DHT22;5607;48.302;14.294;2023-04-06T03:39:54;2.70;99.90
11107;DHT22;5607;48.302;14.294;2023-04-06T03:42:41;2.60;99.90
11107;DHT22;5607;48.302;14.294;2023-04-06T03:45:27;2.50;99.90
11107;DHT22;5607;48.302;14.294;2023-04-06T03:48:13;2.40;99.90
11107;DHT22;5607;48.302;14.294;2023-04-06T03:51:00;2.40;99.90
11107;DHT22;5607;48.302;14.294;2023-04-06T03:53:46;2.50;99.90
11107;DHT22;5607;48.302;14.294;2023-04-06T03:56:32;2.60;99.90
11107;DHT22;5607;48.302;14.294;2023-04-06T03:59:18;2.60;99.90
11107;DHT22;5607;48.302;14.294;2023-04-06T04:02:05;2.70;99.90
11107;DHT22;5607;48.302;14.294;2023-04-06T04:04:51;2.70;99.90
11107;DHT22;5607;48.302;14.294;2023-04-06T04:07:38;2.80;99.90
11107;DHT22;5607;48.302;14.294;2023-04-06T04:10:24;2.80;99.90
11107;DHT22;5607;48.302;14.294;2023-04-06T04:13:10;2.80;99.90
11107;DHT22;5607;48.302;14.294;2023-04-06T04:15:56;2.80;99.90
11107;DHT22;5607;48.302;14.294;2023-04-06T04:18:43;2.80;99.90
11107;DHT22;5607;48.302;14.294;2023-04-06T04:21:29;2.80;99.90
11107;DHT22;5607;48.302;14.294;2023-04-06T04:24:16;2.80;99.90
11107;DHT22;5607;48.302;14.294;2023-04-06T04:27:02;2.70;99.90
11107;DHT22;5607;48.302;14.294;2023-04-06T04:29:50;2.70;99.90
11107;DHT22;5607;48.302;14.294;2023-04-06T04:32:37;2.80;99.90
11107;DHT22;5607;48.302;14.294;2023-04-06T04:35:23;2.80;99.90
11107;DHT22;5607;48.302;14.294;2023-04-06T04:38:10;2.90;99.90
11107;DHT22;5607;48.302;14.294;2023-04-06T04:40:56;2.90;99.90
11107;DHT22;5607;48.302;14.294;2023-04-06T04:43:42;2.90;99.90
11107;DHT22;5607;48.302;14.294;2023-04-06T04:46:28;2.90;99.90
11107;DHT22;5607;48.302;14.294;2023-04-06T04:49:15;2.80;99.90
11107;DHT22;5607;48.302;14.294;2023-04-06T04:52:01;3.00;99.90
11107;DHT22;5607;48.302;14.294;2023-04-06T04:54:47;3.00;99.90
11107;DHT22;5607;48.302;14.294;2023-04-06T04:57:33;2.90;99.90
11107;DHT22;5607;48.302;14.294;2023-04-06T05:00:20;2.90;99.90
11107;DHT22;5607;48.302;14.294;2023-04-06T05:03:06;2.80;99.90
11107;DHT22;5607;48.302;14.294;2023-04-06T05:05:53;2.90;99.90
11107;DHT22;5607;48.302;14.294;2023-04-06T05:08:40;3.00;99.90
11107;DHT22;5607;48.302;14.294;2023-04-06T05:11:26;3.10;99.90
11107;DHT22;5607;48.302;14.294;2023-04-06T05:14:12;3.20;99.90
11107;DHT22;5607;48.302;14.294;2023-04-06T05:16:59;3.30;99.90
11107;DHT22;5607;48.302;14.294;2023-04-06T05:19:45;3.40;99.90
11107;DHT22;5607;48.302;14.294;2023-04-06T05:22:32;3.30;99.90
11107;DHT22;5607;48.302;14.294;2023-04-06T05:25:18;3.20;99.90
11107;DHT22;5607;48.302;14.294;2023-04-06T05:28:05;3.20;99.90
11107;DHT22;5607;48.302;14.294;2023-04-06T05:30:52;3.20;99.90
11107;DHT22;5607;48.302;14.294;2023-04-06T05:33:38;3.40;99.90
11107;DHT22;5607;48.302;14.294;2023-04-06T05:36:25;3.50;99.90
11107;DHT22;5607;48.302;14.294;2023-04-06T05:39:11;3.50;99.90
11107;DHT22;5607;48.302;14.294;2023-04-06T05:41:58;3.60;99.90
11107;DHT22;5607;48.302;14.294;2023-04-06T05:44:44;3.70;99.90
11107;DHT22;5607;48.302;14.294;2023-04-06T05:47:31;3.90;99.90
11107;DHT22;5607;48.302;14.294;2023-04-06T05:50:17;4.00;99.90
11107;DHT22;5607;48.302;14.294;2023-04-06T05:53:03;4.10;99.90
11107;DHT22;5607;48.302;14.294;2023-04-06T05:55:49;4.20;99.90
11107;DHT22;5607;48.302;14.294;2023-04-06T05:58:36;4.30;99.90
11107;DHT22;5607;48.302;14.294;2023-04-06T06:01:23;4.30;99.90
11107;DHT22;5607;48.302;14.294;2023-04-06T06:04:09;4.30;99.90
11107;DHT22;5607;48.302;14.294;2023-04-06T06:06:56;4.30;99.90
11107;DHT22;5607;48.302;14.294;2023-04-06T06:09:42;4.50;99.90
11107;DHT22;5607;48.302;14.294;2023-04-06T06:12:29;4.60;99.90
11107;DHT22;5607;48.302;14.294;2023-04-06T06:15:15;4.60;99.90
11107;DHT22;5607;48.302;14.294;2023-04-06T06:18:01;4.80;99.90
11107;DHT22;5607;48.302;14.294;2023-04-06T06:20:48;4.80;99.90
11107;DHT22;5607;48.302;14.294;2023-04-06T06:23:34;4.90;99.90
11107;DHT22;5607;48.302;14.294;2023-04-06T06:26:20;4.90;99.90
11107;DHT22;5607;48.302;14.294;2023-04-06T06:29:07;4.90;99.90
11107;DHT22;5607;48.302;14.294;2023-04-06T06:31:53;4.90;99.90
11107;DHT22;5607;48.302;14.294;2023-04-06T06:34:41;5.10;99.90
11107;DHT22;5607;48.302;14.294;2023-04-06T06:37:27;5.10;99.90
11107;DHT22;5607;48.302;14.294;2023-04-06T06:40:13;5.10;99.90
11107;DHT22;5607;48.302;14.294;2023-04-06T06:43:02;5.20;99.90
11107;DHT22;5607;48.302;14.294;2023-04-06T06:45:48;5.20;99.90
11107;DHT22;5607;48.302;14.294;2023-04-06T06:48:34;5.20;99.90
11107;DHT22;5607;48.302;14.294;2023-04-06T06:51:21;5.40;99.90
11107;DHT22;5607;48.302;14.294;2023-04-06T06:54:07;5.50;99.90
11107;DHT22;5607;48.302;14.294;2023-04-06T06:56:53;5.60;99.90
11107;DHT22;5607;48.302;14.294;2023-04-06T06:59:40;5.70;99.90
11107;DHT22;5607;48.302;14.294;2023-04-06T07:02:27;5.70;99.90
11107;DHT22;5607;48.302;14.294;2023-04-06T07:05:13;5.80;99.90
11107;DHT22;5607;48.302;14.294;2023-04-06T07:07:59;5.90;99.90
11107;DHT22;5607;48.302;14.294;2023-04-06T07:10:45;5.90;99.90
11107;DHT22;5607;48.302;14.294;2023-04-06T07:13:31;5.90;99.90
11107;DHT22;5607;48.302;14.294;2023-04-06T07:16:18;6.10;99.90
11107;DHT22;5607;48.302;14.294;2023-04-06T07:19:04;6.10;99.90
11107;DHT22;5607;48.302;14.294;2023-04-06T07:21:50;6.10;99.90
11107;DHT22;5607;48.302;14.294;2023-04-06T07:24:36;6.30;99.90
11107;DHT22;5607;48.302;14.294;2023-04-06T07:27:23;6.40;99.90
11107;DHT22;5607;48.302;14.294;2023-04-06T07:30:09;6.30;99.90
11107;DHT22;5607;48.302;14.294;2023-04-06T07:32:56;6.30;99.90
11107;DHT22;5607;48.302;14.294;2023-04-06T07:35:42;6.40;99.90
11107;DHT22;5607;48.302;14.294;2023-04-06T07:38:28;6.50;99.90
11107;DHT22;5607;48.302;14.294;2023-04-06T07:41:15;6.50;99.90
11107;DHT22;5607;48.302;14.294;2023-04-06T07:44:01;6.50;99.90
11107;DHT22;5607;48.302;14.294;2023-04-06T07:46:48;6.50;99.90
11107;DHT22;5607;48.302;14.294;2023-04-06T07:49:34;6.60;99.90
11107;DHT22;5607;48.302;14.294;2023-04-06T07:52:20;6.70;99.90
11107;DHT22;5607;48.302;14.294;2023-04-06T07:55:07;6.70;99.90
11107;DHT22;5607;48.302;14.294;2023-04-06T07:57:53;6.90;99.90
11107;DHT22;5607;48.302;14.294;2023-04-06T08:00:39;7.00;99.90
11107;DHT22;5607;48.302;14.294;2023-04-06T08:03:26;7.00;99.90
11107;DHT22;5607;48.302;14.294;2023-04-06T08:06:12;7.10;99.90
11107;DHT22;5607;48.302;14.294;2023-04-06T08:08:58;7.20;99.90
11107;DHT22;5607;48.302;14.294;2023-04-06T08:11:45;7.10;99.90
11107;DHT22;5607;48.302;14.294;2023-04-06T08:14:32;7.10;99.90
11107;DHT22;5607;48.302;14.294;2023-04-06T08:17:18;7.10;99.90
11107;DHT22;5607;48.302;14.294;2023-04-06T08:20:04;7.40;99.90
11107;DHT22;5607;48.302;14.294;2023-04-06T08:22:51;7.60;99.90
11107;DHT22;5607;48.302;14.294;2023-04-06T08:25:37;7.80;99.90
11107;DHT22;5607;48.302;14.294;2023-04-06T08:28:23;7.80;99.90
11107;DHT22;5607;48.302;14.294;2023-04-06T08:31:09;7.70;99.90
11107;DHT22;5607;48.302;14.294;2023-04-06T08:33:56;8.00;99.90
11107;DHT22;5607;48.302;14.294;2023-04-06T08:36:42;8.10;99.90
11107;DHT22;5607;48.302;14.294;2023-04-06T08:39:28;8.20;99.90
11107;DHT22;5607;48.302;14.294;2023-04-06T08:42:18;8.30;99.90
11107;DHT22;5607;48.302;14.294;2023-04-06T08:45:05;8.40;99.90
11107;DHT22;5607;48.302;14.294;2023-04-06T08:47:51;7.80;99.90
11107;DHT22;5607;48.302;14.294;2023-04-06T08:50:38;7.60;99.90
11107;DHT22;5607;48.302;14.294;2023-04-06T08:53:26;7.70;99.90
11107;DHT22;5607;48.302;14.294;2023-04-06T08:56:12;8.00;99.90
11107;DHT22;5607;48.302;14.294;2023-04-06T08:58:59;8.30;99.90
11107;DHT22;5607;48.302;14.294;2023-04-06T09:01:45;8.40;99.90
11107;DHT22;5607;48.302;14.294;2023-04-06T09:04:35;8.20;99.90
11107;DHT22;5607;48.302;14.294;2023-04-06T09:07:22;8.20;99.90
11107;DHT22;5607;48.302;14.294;2023-04-06T09:10:08;8.20;99.90
11107;DHT22;5607;48.302;14.294;2023-04-06T09:13:07;8.10;99.90
11107;DHT22;5607;48.302;14.294;2023-04-06T09:16:05;8.40;99.90
11107;DHT22;5607;48.302;14.294;2023-04-06T09:24:51;9.00;99.90
11107;DHT22;5607;48.302;14.294;2023-04-06T09:27:38;8.60;99.90
11107;DHT22;5607;48.302;14.294;2023-04-06T09:30:24;8.40;99.90
11107;DHT22;5607;48.302;14.294;2023-04-06T09:33:11;8.30;99.90
11107;DHT22;5607;48.302;14.294;2023-04-06T09:35:57;8.30;99.90
11107;DHT22;5607;48.302;14.294;2023-04-06T09:38:53;8.50;99.90
11107;DHT22;5607;48.302;14.294;2023-04-06T09:41:48;8.60;99.90
11107;DHT22;5607;48.302;14.294;2023-04-06T09:44:35;8.70;99.90
11107;DHT22;5607;48.302;14.294;2023-04-06T09:47:22;8.60;99.90
11107;DHT22;5607;48.302;14.294;2023-04-06T09:50:13;8.70;99.90
11107;DHT22;5607;48.302;14.294;2023-04-06T09:52:59;8.40;99.90
11107;DHT22;5607;48.302;14.294;2023-04-06T09:55:46;8.50;99.90
11107;DHT22;5607;48.302;14.294;2023-04-06T09:58:36;8.70;99.90
11107;DHT22;5607;48.302;14.294;2023-04-06T10:01:23;8.70;99.90
11107;DHT22;5607;48.302;14.294;2023-04-06T10:07:07;8.50;99.90
11107;DHT22;5607;48.302;14.294;2023-04-06T10:09:57;8.30;99.90
11107;DHT22;5607;48.302;14.294;2023-04-06T10:12:44;8.60;99.90
11107;DHT22;5607;48.302;14.294;2023-04-06T10:15:31;8.70;99.90
11107;DHT22;5607;48.302;14.294;2023-04-06T10:18:17;8.60;99.90
11107;DHT22;5607;48.302;14.294;2023-04-06T10:21:07;8.40;99.90
11107;DHT22;5607;48.302;14.294;2023-04-06T10:23:58;8.60;99.90
11107;DHT22;5607;48.302;14.294;2023-04-06T10:26:58;8.90;99.90
11107;DHT22;5607;48.302;14.294;2023-04-06T10:29:45;9.10;99.90
11107;DHT22;5607;48.302;14.294;2023-04-06T10:32:36;9.10;99.90
11107;DHT22;5607;48.302;14.294;2023-04-06T10:35:22;9.30;99.90
11107;DHT22;5607;48.302;14.294;2023-04-06T10:38:10;9.40;99.90
11107;DHT22;5607;48.302;14.294;2023-04-06T10:40:58;9.40;99.90
11107;DHT22;5607;48.302;14.294;2023-04-06T10:43:55;9.40;99.90
11107;DHT22;5607;48.302;14.294;2023-04-06T10:46:52;9.30;99.90
11107;DHT22;5607;48.302;14.294;2023-04-06T10:49:38;9.40;99.90
11107;DHT22;5607;48.302;14.294;2023-04-06T10:52:24;9.40;99.90
11107;DHT22;5607;48.302;14.294;2023-04-06T10:55:10;9.30;99.90
11107;DHT22;5607;48.302;14.294;2023-04-06T10:57:58;9.60;99.90
11107;DHT22;5607;48.302;14.294;2023-04-06T11:00:48;9.60;99.90
11107;DHT22;5607;48.302;14.294;2023-04-06T11:03:42;9.90;99.90
11107;DHT22;5607;48.302;14.294;2023-04-06T11:06:29;10.00;99.90
11107;DHT22;5607;48.302;14.294;2023-04-06T11:09:26;10.20;99.90
11107;DHT22;5607;48.302;14.294;2023-04-06T11:12:26;10.30;99.90
11107;DHT22;5607;48.302;14.294;2023-04-06T11:15:13;10.40;99.90
11107;DHT22;5607;48.302;14.294;2023-04-06T11:18:03;10.10;99.90
11107;DHT22;5607;48.302;14.294;2023-04-06T11:20:49;10.30;99.90
11107;DHT22;5607;48.302;14.294;2023-04-06T11:23:36;10.00;99.90
11107;DHT22;5607;48.302;14.294;2023-04-06T11:26:24;10.10;99.90
11107;DHT22;5607;48.302;14.294;2023-04-06T11:29:11;9.90;99.90
11107;DHT22;5607;48.302;14.294;2023-04-06T11:31:59;10.10;99.90
11107;DHT22;5607;48.302;14.294;2023-04-06T11:34:48;10.10;99.90
11107;DHT22;5607;48.302;14.294;2023-04-06T11:37:34;10.30;99.90
11107;DHT22;5607;48.302;14.294;2023-04-06T11:40:21;10.50;99.90
11107;DHT22;5607;48.302;14.294;2023-04-06T11:43:10;10.60;99.90
11107;DHT22;5607;48.302;14.294;2023-04-06T11:46:00;10.70;99.90
11107;DHT22;5607;48.302;14.294;2023-04-06T11:48:48;11.00;99.90
11107;DHT22;5607;48.302;14.294;2023-04-06T11:51:37;10.90;99.90
11107;DHT22;5607;48.302;14.294;2023-04-06T11:54:33;10.60;99.90
11107;DHT22;5607;48.302;14.294;2023-04-06T11:57:20;10.70;99.90
11107;DHT22;5607;48.302;14.294;2023-04-06T12:00:07;10.80;99.90
11107;DHT22;5607;48.302;14.294;2023-04-06T12:02:55;11.00;99.90
11107;DHT22;5607;48.302;14.294;2023-04-06T12:05:43;11.40;99.90
11107;DHT22;5607;48.302;14.294;2023-04-06T12:08:29;11.50;99.90
11107;DHT22;5607;48.302;14.294;2023-04-06T12:11:15;11.80;99.90
11107;DHT22;5607;48.302;14.294;2023-04-06T12:14:03;12.20;99.90
11107;DHT22;5607;48.302;14.294;2023-04-06T12:16:50;12.40;99.90
11107;DHT22;5607;48.302;14.294;2023-04-06T12:19:37;11.90;99.90
11107;DHT22;5607;48.302;14.294;2023-04-06T12:22:23;11.70;99.90
11107;DHT22;5607;48.302;14.294;2023-04-06T12:25:10;11.70;99.90
11107;DHT22;5607;48.302;14.294;2023-04-06T12:27:56;11.90;99.90
11107;DHT22;5607;48.302;14.294;2023-04-06T12:30:43;12.30;99.90
11107;DHT22;5607;48.302;14.294;2023-04-06T12:33:29;12.50;99.90
11107;DHT22;5607;48.302;14.294;2023-04-06T12:36:16;12.60;99.90
11107;DHT22;5607;48.302;14.294;2023-04-06T12:39:06;12.70;99.90
11107;DHT22;5607;48.302;14.294;2023-04-06T12:41:52;12.70;99.90
11107;DHT22;5607;48.302;14.294;2023-04-06T12:44:38;12.30;99.90
11107;DHT22;5607;48.302;14.294;2023-04-06T12:47:25;12.30;99.90
11107;DHT22;5607;48.302;14.294;2023-04-06T12:50:13;12.50;99.90
11107;DHT22;5607;48.302;14.294;2023-04-06T12:52:59;12.50;99.90
11107;DHT22;5607;48.302;14.294;2023-04-06T12:55:45;12.50;99.90
11107;DHT22;5607;48.302;14.294;2023-04-06T12:58:32;12.50;99.90
11107;DHT22;5607;48.302;14.294;2023-04-06T13:01:19;12.40;99.90
11107;DHT22;5607;48.302;14.294;2023-04-06T13:04:06;12.40;99.90
11107;DHT22;5607;48.302;14.294;2023-04-06T13:06:52;12.30;99.90
11107;DHT22;5607;48.302;14.294;2023-04-06T13:09:38;12.30;99.90
11107;DHT22;5607;48.302;14.294;2023-04-06T13:12:24;12.30;99.90
11107;DHT22;5607;48.302;14.294;2023-04-06T13:15:12;12.50;99.90
11107;DHT22;5607;48.302;14.294;2023-04-06T13:17:58;13.00;99.90
11107;DHT22;5607;48.302;14.294;2023-04-06T13:20:46;13.20;99.90
11107;DHT22;5607;48.302;14.294;2023-04-06T13:23:32;13.40;99.90
11107;DHT22;5607;48.302;14.294;2023-04-06T13:26:18;13.50;99.90
11107;DHT22;5607;48.302;14.294;2023-04-06T13:29:06;13.50;99.90
11107;DHT22;5607;48.302;14.294;2023-04-06T13:31:53;13.70;99.90
11107;DHT22;5607;48.302;14.294;2023-04-06T13:34:39;13.80;99.90
11107;DHT22;5607;48.302;14.294;2023-04-06T13:37:26;14.10;99.90
11107;DHT22;5607;48.302;14.294;2023-04-06T13:40:12;14.20;99.90
11107;DHT22;5607;48.302;14.294;2023-04-06T13:42:59;13.80;99.90
11107;DHT22;5607;48.302;14.294;2023-04-06T13:45:51;12.80;99.90
11107;DHT22;5607;48.302;14.294;2023-04-06T13:48:38;13.00;99.90
11107;DHT22;5607;48.302;14.294;2023-04-06T13:51:24;13.40;99.90
11107;DHT22;5607;48.302;14.294;2023-04-06T13:54:12;14.10;99.90
11107;DHT22;5607;48.302;14.294;2023-04-06T13:56:58;14.00;99.90
11107;DHT22;5607;48.302;14.294;2023-04-06T13:59:44;14.60;99.90
11107;DHT22;5607;48.302;14.294;2023-04-06T14:02:31;15.00;99.90
11107;DHT22;5607;48.302;14.294;2023-04-06T14:05:17;15.40;99.90
11107;DHT22;5607;48.302;14.294;2023-04-06T14:08:03;15.70;99.90
11107;DHT22;5607;48.302;14.294;2023-04-06T14:10:49;15.50;99.90
11107;DHT22;5607;48.302;14.294;2023-04-06T14:16:41;16.30;99.90
11107;DHT22;5607;48.302;14.294;2023-04-06T14:19:31;16.50;99.90
11107;DHT22;5607;48.302;14.294;2023-04-06T14:22:17;17.00;99.90
11107;DHT22;5607;48.302;14.294;2023-04-06T14:25:04;17.00;99.90
11107;DHT22;5607;48.302;14.294;2023-04-06T14:27:50;18.00;99.90
11107;DHT22;5607;48.302;14.294;2023-04-06T14:30:36;18.80;99.90
11107;DHT22;5607;48.302;14.294;2023-04-06T14:33:24;19.40;99.90
11107;DHT22;5607;48.302;14.294;2023-04-06T14:36:10;19.00;99.90
11107;DHT22;5607;48.302;14.294;2023-04-06T14:38:57;19.80;99.90
11107;DHT22;5607;48.302;14.294;2023-04-06T14:41:43;20.70;99.90
11107;DHT22;5607;48.302;14.294;2023-04-06T14:44:29;20.60;99.90
11107;DHT22;5607;48.302;14.294;2023-04-06T14:47:18;22.60;99.90
11107;DHT22;5607;48.302;14.294;2023-04-06T14:50:06;24.20;99.90
11107;DHT22;5607;48.302;14.294;2023-04-06T14:52:52;25.20;99.90
11107;DHT22;5607;48.302;14.294;2023-04-06T14:55:39;26.90;99.90
11107;DHT22;5607;48.302;14.294;2023-04-06T14:58:27;26.00;99.90
11107;DHT22;5607;48.302;14.294;2023-04-06T15:01:13;23.80;99.90
11107;DHT22;5607;48.302;14.294;2023-04-06T15:03:59;25.80;99.90
11107;DHT22;5607;48.302;14.294;2023-04-06T15:06:45;27.50;99.90
11107;DHT22;5607;48.302;14.294;2023-04-06T15:09:32;26.30;99.90
11107;DHT22;5607;48.302;14.294;2023-04-06T15:12:18;22.90;99.90
11107;DHT22;5607;48.302;14.294;2023-04-06T15:15:04;19.90;99.90
11107;DHT22;5607;48.302;14.294;2023-04-06T15:17:51;18.30;99.90
11107;DHT22;5607;48.302;14.294;2023-04-06T15:20:37;16.60;99.90
11107;DHT22;5607;48.302;14.294;2023-04-06T15:23:23;15.70;99.90
11107;DHT22;5607;48.302;14.294;2023-04-06T15:26:10;15.30;99.90
11107;DHT22;5607;48.302;14.294;2023-04-06T15:28:59;14.90;99.90
11107;DHT22;5607;48.302;14.294;2023-04-06T15:31:46;14.50;99.90
11107;DHT22;5607;48.302;14.294;2023-04-06T15:34:32;14.00;99.90
11107;DHT22;5607;48.302;14.294;2023-04-06T15:37:19;13.90;99.90
11107;DHT22;5607;48.302;14.294;2023-04-06T15:40:06;13.80;99.90
11107;DHT22;5607;48.302;14.294;2023-04-06T15:42:52;13.40;99.90
11107;DHT22;5607;48.302;14.294;2023-04-06T15:45:39;13.20;99.90
11107;DHT22;5607;48.302;14.294;2023-04-06T15:48:26;13.20;99.90
11107;DHT22;5607;48.302;14.294;2023-04-06T15:51:16;13.20;99.90
11107;DHT22;5607;48.302;14.294;2023-04-06T15:54:02;13.20;99.90
11107;DHT22;5607;48.302;14.294;2023-04-06T15:56:49;13.00;99.90
11107;DHT22;5607;48.302;14.294;2023-04-06T15:59:35;12.90;99.90
11107;DHT22;5607;48.302;14.294;2023-04-06T16:02:22;12.70;99.90
11107;DHT22;5607;48.302;14.294;2023-04-06T16:05:08;12.60;99.90
11107;DHT22;5607;48.302;14.294;2023-04-06T16:07:55;12.30;99.90
11107;DHT22;5607;48.302;14.294;2023-04-06T16:10:41;12.40;99.90
11107;DHT22;5607;48.302;14.294;2023-04-06T16:13:28;12.40;99.90
11107;DHT22;5607;48.302;14.294;2023-04-06T16:16:14;12.40;99.90
11107;DHT22;5607;48.302;14.294;2023-04-06T16:19:00;12.40;99.90
11107;DHT22;5607;48.302;14.294;2023-04-06T16:21:47;12.20;99.90
11107;DHT22;5607;48.302;14.294;2023-04-06T16:24:33;12.10;99.90
11107;DHT22;5607;48.302;14.294;2023-04-06T16:27:19;12.20;99.90
11107;DHT22;5607;48.302;14.294;2023-04-06T16:30:06;12.30;99.90
11107;DHT22;5607;48.302;14.294;2023-04-06T16:32:52;12.20;99.90
11107;DHT22;5607;48.302;14.294;2023-04-06T16:35:42;12.00;99.90
11107;DHT22;5607;48.302;14.294;2023-04-06T16:38:29;11.90;99.90
11107;DHT22;5607;48.302;14.294;2023-04-06T16:41:21;11.60;99.90
11107;DHT22;5607;48.302;14.294;2023-04-06T16:44:07;11.40;99.90
11107;DHT22;5607;48.302;14.294;2023-04-06T16:46:55;11.30;99.90
11107;DHT22;5607;48.302;14.294;2023-04-06T16:49:41;11.30;99.90
11107;DHT22;5607;48.302;14.294;2023-04-06T16:52:28;11.40;99.90
11107;DHT22;5607;48.302;14.294;2023-04-06T16:55:14;11.40;99.90
11107;DHT22;5607;48.302;14.294;2023-04-06T16:58:00;11.50;99.90
11107;DHT22;5607;48.302;14.294;2023-04-06T17:00:48;11.50;99.90
11107;DHT22;5607;48.302;14.294;2023-04-06T17:03:34;11.50;99.90
11107;DHT22;5607;48.302;14.294;2023-04-06T17:06:20;11.50;99.90
11107;DHT22;5607;48.302;14.294;2023-04-06T17:09:07;11.50;99.90
11107;DHT22;5607;48.302;14.294;2023-04-06T17:11:53;11.40;99.90
11107;DHT22;5607;48.302;14.294;2023-04-06T17:14:39;11.30;99.90
11107;DHT22;5607;48.302;14.294;2023-04-06T17:17:25;11.20;99.90
11107;DHT22;5607;48.302;14.294;2023-04-06T17:20:12;11.20;99.90
11107;DHT22;5607;48.302;14.294;2023-04-06T17:22:58;11.10;99.90
11107;DHT22;5607;48.302;14.294;2023-04-06T17:25:44;11.00;99.90
11107;DHT22;5607;48.302;14.294;2023-04-06T17:28:30;11.00;99.90
11107;DHT22;5607;48.302;14.294;2023-04-06T17:31:17;10.90;99.90
11107;DHT22;5607;48.302;14.294;2023-04-06T17:34:03;10.80;99.90
11107;DHT22;5607;48.302;14.294;2023-04-06T17:36:49;10.70;99.90
11107;DHT22;5607;48.302;14.294;2023-04-06T17:39:35;10.60;99.90
11107;DHT22;5607;48.302;14.294;2023-04-06T17:42:22;10.60;99.90
11107;DHT22;5607;48.302;14.294;2023-04-06T17:45:08;10.60;99.90
11107;DHT22;5607;48.302;14.294;2023-04-06T17:47:54;10.50;99.90
11107;DHT22;5607;48.302;14.294;2023-04-06T17:50:41;10.40;99.90
11107;DHT22;5607;48.302;14.294;2023-04-06T17:53:27;10.30;99.90
11107;DHT22;5607;48.302;14.294;2023-04-06T17:56:18;10.30;99.90